sensor_id;sensor_type;location;lat;lon;timestamp;P1;durP1;ratioP1;P2;durP2;ratioP2
31424;SDS011;18054;51.572;7.372;2022-07-06T00:00:42;7.60;;;1.65;;
31424;SDS011;18054;51.572;7.372;2022-07-06T00:03:09;10.77;;;2.42;;
31424;SDS011;18054;51.572;7.372;2022-07-06T00:08:05;5.97;;;2.13;;
31424;SDS011;18054;51.572;7.372;2022-07-06T00:13:02;7.70;;;1.85;;
31424;SDS011;18054;51.572;7.372;2022-07-06T00:15:30;3.88;;;1.67;;
31424;SDS011;18054;51.572;7.372;2022-07-06T00:17:57;7.95;;;2.15;;
31424;SDS011;18054;51.572;7.372;2022-07-06T00:20:25;11.20;;;1.70;;
31424;SDS011;18054;51.572;7.372;2022-07-06T00:22:52;9.20;;;2.08;;
31424;SDS011;18054;51.572;7.372;2022-07-06T00:25:20;5.32;;;2.00;;
31424;SDS011;18054;51.572;7.372;2022-07-06T00:27:47;10.05;;;2.28;;
31424;SDS011;18054;51.572;7.372;2022-07-06T00:30:16;9.70;;;2.15;;
31424;SDS011;18054;51.572;7.372;2022-07-06T00:32:44;7.70;;;1.88;;
31424;SDS011;18054;51.572;7.372;2022-07-06T00:35:11;5.18;;;1.52;;
31424;SDS011;18054;51.572;7.372;2022-07-06T00:37:39;9.82;;;2.03;;
31424;SDS011;18054;51.572;7.372;2022-07-06T00:40:07;7.28;;;1.63;;
31424;SDS011;18054;51.572;7.372;2022-07-06T00:42:40;10.52;;;2.33;;
31424;SDS011;18054;51.572;7.372;2022-07-06T00:45:08;9.07;;;1.80;;
31424;SDS011;18054;51.572;7.372;2022-07-06T00:47:38;6.82;;;2.05;;
31424;SDS011;18054;51.572;7.372;2022-07-06T00:50:06;8.32;;;1.98;;
31424;SDS011;18054;51.572;7.372;2022-07-06T00:52:47;9.95;;;2.38;;
31424;SDS011;18054;51.572;7.372;2022-07-06T00:55:16;8.10;;;2.10;;
31424;SDS011;18054;51.572;7.372;2022-07-06T00:57:45;4.93;;;1.60;;
31424;SDS011;18054;51.572;7.372;2022-07-06T01:00:13;8.77;;;1.80;;
31424;SDS011;18054;51.572;7.372;2022-07-06T01:02:43;10.52;;;2.13;;
31424;SDS011;18054;51.572;7.372;2022-07-06T01:05:11;6.63;;;2.20;;
31424;SDS011;18054;51.572;7.372;2022-07-06T01:07:39;5.32;;;2.05;;
31424;SDS011;18054;51.572;7.372;2022-07-06T01:10:08;12.30;;;2.03;;
31424;SDS011;18054;51.572;7.372;2022-07-06T01:12:36;9.07;;;1.95;;
31424;SDS011;18054;51.572;7.372;2022-07-06T01:15:05;7.57;;;2.10;;
31424;SDS011;18054;51.572;7.372;2022-07-06T01:17:33;8.80;;;2.33;;
31424;SDS011;18054;51.572;7.372;2022-07-06T01:22:29;8.90;;;2.30;;
31424;SDS011;18054;51.572;7.372;2022-07-06T01:24:57;10.68;;;3.33;;
31424;SDS011;18054;51.572;7.372;2022-07-06T01:27:24;4.45;;;1.88;;
31424;SDS011;18054;51.572;7.372;2022-07-06T01:29:52;10.02;;;2.08;;
31424;SDS011;18054;51.572;7.372;2022-07-06T01:32:19;9.23;;;2.22;;
31424;SDS011;18054;51.572;7.372;2022-07-06T01:34:47;10.93;;;2.10;;
31424;SDS011;18054;51.572;7.372;2022-07-06T01:37:14;12.20;;;2.05;;
31424;SDS011;18054;51.572;7.372;2022-07-06T01:39:43;9.50;;;2.10;;
31424;SDS011;18054;51.572;7.372;2022-07-06T01:42:11;6.93;;;2.10;;
31424;SDS011;18054;51.572;7.372;2022-07-06T01:44:39;6.45;;;2.20;;
31424;SDS011;18054;51.572;7.372;2022-07-06T01:47:07;5.47;;;2.05;;
31424;SDS011;18054;51.572;7.372;2022-07-06T01:49:34;8.60;;;2.10;;
31424;SDS011;18054;51.572;7.372;2022-07-06T01:52:02;6.90;;;2.42;;
31424;SDS011;18054;51.572;7.372;2022-07-06T01:54:29;6.03;;;2.00;;
31424;SDS011;18054;51.572;7.372;2022-07-06T01:56:58;11.07;;;2.67;;
31424;SDS011;18054;51.572;7.372;2022-07-06T01:59:26;5.05;;;1.95;;
31424;SDS011;18054;51.572;7.372;2022-07-06T02:01:54;5.75;;;1.80;;
31424;SDS011;18054;51.572;7.372;2022-07-06T02:04:22;9.52;;;2.83;;
31424;SDS011;18054;51.572;7.372;2022-07-06T02:09:17;5.70;;;2.00;;
31424;SDS011;18054;51.572;7.372;2022-07-06T02:11:44;9.27;;;2.47;;
31424;SDS011;18054;51.572;7.372;2022-07-06T02:14:15;5.75;;;2.25;;
31424;SDS011;18054;51.572;7.372;2022-07-06T02:16:43;12.43;;;2.50;;
31424;SDS011;18054;51.572;7.372;2022-07-06T02:19:10;6.72;;;2.42;;
31424;SDS011;18054;51.572;7.372;2022-07-06T02:21:38;8.23;;;2.38;;
31424;SDS011;18054;51.572;7.372;2022-07-06T02:24:05;6.32;;;2.10;;
31424;SDS011;18054;51.572;7.372;2022-07-06T02:26:33;4.05;;;1.80;;
31424;SDS011;18054;51.572;7.372;2022-07-06T02:29:00;12.32;;;2.70;;
31424;SDS011;18054;51.572;7.372;2022-07-06T02:31:29;8.70;;;2.65;;
31424;SDS011;18054;51.572;7.372;2022-07-06T02:33:57;6.72;;;2.30;;
31424;SDS011;18054;51.572;7.372;2022-07-06T02:36:24;9.77;;;2.50;;
31424;SDS011;18054;51.572;7.372;2022-07-06T02:38:52;9.95;;;2.67;;
31424;SDS011;18054;51.572;7.372;2022-07-06T02:41:20;17.63;;;2.83;;
31424;SDS011;18054;51.572;7.372;2022-07-06T02:43:48;7.05;;;3.13;;
31424;SDS011;18054;51.572;7.372;2022-07-06T02:46:15;11.18;;;3.13;;
31424;SDS011;18054;51.572;7.372;2022-07-06T02:48:46;7.47;;;2.47;;
31424;SDS011;18054;51.572;7.372;2022-07-06T02:51:13;6.30;;;2.78;;
31424;SDS011;18054;51.572;7.372;2022-07-06T02:53:41;9.52;;;2.53;;
31424;SDS011;18054;51.572;7.372;2022-07-06T02:56:09;6.10;;;2.85;;
31424;SDS011;18054;51.572;7.372;2022-07-06T02:58:36;7.53;;;2.28;;
31424;SDS011;18054;51.572;7.372;2022-07-06T03:01:04;12.23;;;2.20;;
31424;SDS011;18054;51.572;7.372;2022-07-06T03:03:33;5.03;;;2.35;;
31424;SDS011;18054;51.572;7.372;2022-07-06T03:06:03;8.35;;;2.50;;
31424;SDS011;18054;51.572;7.372;2022-07-06T03:08:31;10.32;;;2.50;;
31424;SDS011;18054;51.572;7.372;2022-07-06T03:11:01;9.00;;;2.55;;
31424;SDS011;18054;51.572;7.372;2022-07-06T03:15:56;6.93;;;2.30;;
31424;SDS011;18054;51.572;7.372;2022-07-06T03:18:24;10.82;;;2.33;;
31424;SDS011;18054;51.572;7.372;2022-07-06T03:20:53;7.25;;;3.40;;
31424;SDS011;18054;51.572;7.372;2022-07-06T03:23:22;4.22;;;2.08;;
31424;SDS011;18054;51.572;7.372;2022-07-06T03:25:50;21.85;;;2.88;;
31424;SDS011;18054;51.572;7.372;2022-07-06T03:28:17;4.75;;;1.90;;
31424;SDS011;18054;51.572;7.372;2022-07-06T03:30:45;10.63;;;2.25;;
31424;SDS011;18054;51.572;7.372;2022-07-06T03:33:13;8.90;;;2.50;;
31424;SDS011;18054;51.572;7.372;2022-07-06T03:35:41;8.32;;;2.65;;
31424;SDS011;18054;51.572;7.372;2022-07-06T03:38:10;7.80;;;2.30;;
31424;SDS011;18054;51.572;7.372;2022-07-06T03:40:40;8.13;;;2.10;;
31424;SDS011;18054;51.572;7.372;2022-07-06T03:43:08;9.88;;;2.00;;
31424;SDS011;18054;51.572;7.372;2022-07-06T03:45:37;15.15;;;2.40;;
31424;SDS011;18054;51.572;7.372;2022-07-06T03:48:05;8.10;;;2.50;;
31424;SDS011;18054;51.572;7.372;2022-07-06T03:50:35;10.32;;;2.28;;
31424;SDS011;18054;51.572;7.372;2022-07-06T03:53:03;4.97;;;2.05;;
31424;SDS011;18054;51.572;7.372;2022-07-06T03:58:03;7.05;;;2.20;;
31424;SDS011;18054;51.572;7.372;2022-07-06T04:00:34;9.38;;;2.20;;
31424;SDS011;18054;51.572;7.372;2022-07-06T04:03:05;10.15;;;2.40;;
31424;SDS011;18054;51.572;7.372;2022-07-06T04:05:39;6.22;;;2.20;;
31424;SDS011;18054;51.572;7.372;2022-07-06T04:08:07;7.43;;;2.00;;
31424;SDS011;18054;51.572;7.372;2022-07-06T04:10:40;7.88;;;2.05;;
31424;SDS011;18054;51.572;7.372;2022-07-06T04:15:37;17.00;;;2.83;;
31424;SDS011;18054;51.572;7.372;2022-07-06T04:18:06;5.63;;;2.20;;
31424;SDS011;18054;51.572;7.372;2022-07-06T04:20:42;11.30;;;2.45;;
31424;SDS011;18054;51.572;7.372;2022-07-06T04:23:10;8.02;;;2.13;;
31424;SDS011;18054;51.572;7.372;2022-07-06T04:25:38;7.03;;;2.10;;
31424;SDS011;18054;51.572;7.372;2022-07-06T04:28:06;12.48;;;2.40;;
31424;SDS011;18054;51.572;7.372;2022-07-06T04:30:36;10.07;;;2.25;;
31424;SDS011;18054;51.572;7.372;2022-07-06T04:33:07;8.88;;;2.20;;
31424;SDS011;18054;51.572;7.372;2022-07-06T04:35:35;11.18;;;2.97;;
31424;SDS011;18054;51.572;7.372;2022-07-06T04:38:03;13.32;;;3.08;;
31424;SDS011;18054;51.572;7.372;2022-07-06T04:40:31;6.90;;;2.47;;
31424;SDS011;18054;51.572;7.372;2022-07-06T04:43:03;10.48;;;2.63;;
31424;SDS011;18054;51.572;7.372;2022-07-06T04:45:31;9.77;;;2.40;;
31424;SDS011;18054;51.572;7.372;2022-07-06T04:48:00;10.48;;;2.25;;
31424;SDS011;18054;51.572;7.372;2022-07-06T04:50:28;13.48;;;2.55;;
31424;SDS011;18054;51.572;7.372;2022-07-06T04:53:01;7.63;;;2.10;;
31424;SDS011;18054;51.572;7.372;2022-07-06T04:55:31;6.68;;;2.45;;
31424;SDS011;18054;51.572;7.372;2022-07-06T04:57:58;8.80;;;2.90;;
31424;SDS011;18054;51.572;7.372;2022-07-06T05:02:55;5.03;;;1.95;;
31424;SDS011;18054;51.572;7.372;2022-07-06T05:05:26;9.07;;;2.15;;
31424;SDS011;18054;51.572;7.372;2022-07-06T05:07:54;11.00;;;2.38;;
31424;SDS011;18054;51.572;7.372;2022-07-06T05:10:22;9.25;;;2.53;;
31424;SDS011;18054;51.572;7.372;2022-07-06T05:12:53;8.75;;;2.30;;
31424;SDS011;18054;51.572;7.372;2022-07-06T05:15:21;15.02;;;2.47;;
31424;SDS011;18054;51.572;7.372;2022-07-06T05:20:18;7.28;;;2.13;;
31424;SDS011;18054;51.572;7.372;2022-07-06T05:22:48;11.48;;;2.90;;
31424;SDS011;18054;51.572;7.372;2022-07-06T05:25:20;11.95;;;2.40;;
31424;SDS011;18054;51.572;7.372;2022-07-06T05:27:47;11.15;;;2.42;;
31424;SDS011;18054;51.572;7.372;2022-07-06T05:30:16;11.65;;;2.70;;
31424;SDS011;18054;51.572;7.372;2022-07-06T05:32:43;7.60;;;2.25;;
31424;SDS011;18054;51.572;7.372;2022-07-06T05:35:11;11.05;;;2.35;;
31424;SDS011;18054;51.572;7.372;2022-07-06T05:38:03;12.48;;;2.95;;
31424;SDS011;18054;51.572;7.372;2022-07-06T05:40:31;11.13;;;2.85;;
31424;SDS011;18054;51.572;7.372;2022-07-06T05:42:58;19.50;;;2.22;;
31424;SDS011;18054;51.572;7.372;2022-07-06T05:45:26;8.98;;;2.42;;
31424;SDS011;18054;51.572;7.372;2022-07-06T05:47:55;16.58;;;2.67;;
31424;SDS011;18054;51.572;7.372;2022-07-06T05:50:40;11.07;;;2.78;;
31424;SDS011;18054;51.572;7.372;2022-07-06T05:53:09;11.45;;;2.28;;
31424;SDS011;18054;51.572;7.372;2022-07-06T05:55:46;10.23;;;2.50;;
31424;SDS011;18054;51.572;7.372;2022-07-06T05:58:14;9.93;;;2.17;;
31424;SDS011;18054;51.572;7.372;2022-07-06T06:00:44;9.43;;;2.53;;
31424;SDS011;18054;51.572;7.372;2022-07-06T06:03:15;13.02;;;2.25;;
31424;SDS011;18054;51.572;7.372;2022-07-06T06:05:44;11.32;;;2.65;;
31424;SDS011;18054;51.572;7.372;2022-07-06T06:08:14;18.75;;;2.80;;
31424;SDS011;18054;51.572;7.372;2022-07-06T06:10:42;11.57;;;2.00;;
31424;SDS011;18054;51.572;7.372;2022-07-06T06:13:12;3.70;;;1.52;;
31424;SDS011;18054;51.572;7.372;2022-07-06T06:15:40;11.15;;;1.70;;
31424;SDS011;18054;51.572;7.372;2022-07-06T06:18:08;11.95;;;2.40;;
31424;SDS011;18054;51.572;7.372;2022-07-06T06:20:35;13.38;;;2.28;;
31424;SDS011;18054;51.572;7.372;2022-07-06T06:23:03;12.00;;;2.22;;
31424;SDS011;18054;51.572;7.372;2022-07-06T06:25:33;14.52;;;1.65;;
31424;SDS011;18054;51.572;7.372;2022-07-06T06:28:01;11.40;;;1.67;;
31424;SDS011;18054;51.572;7.372;2022-07-06T06:30:28;5.95;;;1.60;;
31424;SDS011;18054;51.572;7.372;2022-07-06T06:33:09;11.88;;;2.10;;
31424;SDS011;18054;51.572;7.372;2022-07-06T06:35:38;9.95;;;2.00;;
31424;SDS011;18054;51.572;7.372;2022-07-06T06:38:06;12.25;;;1.88;;
31424;SDS011;18054;51.572;7.372;2022-07-06T06:40:34;11.45;;;1.52;;
31424;SDS011;18054;51.572;7.372;2022-07-06T06:43:02;15.27;;;1.58;;
31424;SDS011;18054;51.572;7.372;2022-07-06T06:45:30;8.77;;;1.60;;
31424;SDS011;18054;51.572;7.372;2022-07-06T06:47:58;9.18;;;1.60;;
31424;SDS011;18054;51.572;7.372;2022-07-06T06:50:25;8.10;;;1.45;;
31424;SDS011;18054;51.572;7.372;2022-07-06T06:52:53;9.68;;;1.33;;
31424;SDS011;18054;51.572;7.372;2022-07-06T06:55:20;8.85;;;1.85;;
31424;SDS011;18054;51.572;7.372;2022-07-06T06:57:49;6.47;;;1.70;;
31424;SDS011;18054;51.572;7.372;2022-07-06T07:00:17;7.38;;;1.30;;
31424;SDS011;18054;51.572;7.372;2022-07-06T07:02:44;10.02;;;2.45;;
31424;SDS011;18054;51.572;7.372;2022-07-06T07:05:13;8.30;;;1.35;;
31424;SDS011;18054;51.572;7.372;2022-07-06T07:07:40;9.38;;;1.23;;
31424;SDS011;18054;51.572;7.372;2022-07-06T07:10:08;12.45;;;1.70;;
31424;SDS011;18054;51.572;7.372;2022-07-06T07:12:41;15.30;;;2.10;;
31424;SDS011;18054;51.572;7.372;2022-07-06T07:15:10;11.23;;;1.88;;
31424;SDS011;18054;51.572;7.372;2022-07-06T07:17:38;2.92;;;1.00;;
31424;SDS011;18054;51.572;7.372;2022-07-06T07:20:06;11.88;;;1.92;;
31424;SDS011;18054;51.572;7.372;2022-07-06T07:22:34;5.70;;;1.02;;
31424;SDS011;18054;51.572;7.372;2022-07-06T07:25:01;7.82;;;1.48;;
31424;SDS011;18054;51.572;7.372;2022-07-06T07:27:29;5.40;;;1.35;;
31424;SDS011;18054;51.572;7.372;2022-07-06T07:29:56;9.70;;;1.40;;
31424;SDS011;18054;51.572;7.372;2022-07-06T07:32:25;16.63;;;1.42;;
31424;SDS011;18054;51.572;7.372;2022-07-06T07:34:52;9.15;;;1.30;;
31424;SDS011;18054;51.572;7.372;2022-07-06T07:37:20;7.78;;;1.10;;
31424;SDS011;18054;51.572;7.372;2022-07-06T07:39:47;11.07;;;1.60;;
31424;SDS011;18054;51.572;7.372;2022-07-06T07:42:15;7.10;;;1.02;;
31424;SDS011;18054;51.572;7.372;2022-07-06T07:44:43;9.23;;;1.27;;
31424;SDS011;18054;51.572;7.372;2022-07-06T07:47:11;9.05;;;1.15;;
31424;SDS011;18054;51.572;7.372;2022-07-06T07:49:40;10.38;;;1.17;;
31424;SDS011;18054;51.572;7.372;2022-07-06T07:52:07;5.30;;;0.90;;
31424;SDS011;18054;51.572;7.372;2022-07-06T07:54:35;7.32;;;1.15;;
31424;SDS011;18054;51.572;7.372;2022-07-06T07:57:02;10.25;;;1.55;;
31424;SDS011;18054;51.572;7.372;2022-07-06T07:59:30;6.85;;;1.40;;
31424;SDS011;18054;51.572;7.372;2022-07-06T08:01:57;5.53;;;0.90;;
31424;SDS011;18054;51.572;7.372;2022-07-06T08:04:25;9.50;;;1.10;;
31424;SDS011;18054;51.572;7.372;2022-07-06T08:06:54;5.82;;;1.67;;
31424;SDS011;18054;51.572;7.372;2022-07-06T08:09:27;11.05;;;1.38;;
31424;SDS011;18054;51.572;7.372;2022-07-06T08:11:54;14.05;;;1.35;;
31424;SDS011;18054;51.572;7.372;2022-07-06T08:14:22;4.70;;;0.70;;
31424;SDS011;18054;51.572;7.372;2022-07-06T08:16:50;10.35;;;1.00;;
31424;SDS011;18054;51.572;7.372;2022-07-06T08:19:18;6.53;;;1.00;;
31424;SDS011;18054;51.572;7.372;2022-07-06T08:21:45;10.30;;;1.55;;
31424;SDS011;18054;51.572;7.372;2022-07-06T08:24:14;8.48;;;1.42;;
31424;SDS011;18054;51.572;7.372;2022-07-06T08:26:42;5.53;;;0.90;;
31424;SDS011;18054;51.572;7.372;2022-07-06T08:29:09;6.47;;;1.17;;
31424;SDS011;18054;51.572;7.372;2022-07-06T08:31:37;5.82;;;0.95;;
31424;SDS011;18054;51.572;7.372;2022-07-06T08:34:22;11.05;;;1.17;;
31424;SDS011;18054;51.572;7.372;2022-07-06T08:36:57;6.53;;;1.20;;
31424;SDS011;18054;51.572;7.372;2022-07-06T08:39:25;6.22;;;1.45;;
31424;SDS011;18054;51.572;7.372;2022-07-06T08:41:53;8.77;;;1.08;;
31424;SDS011;18054;51.572;7.372;2022-07-06T08:44:22;8.35;;;1.08;;
31424;SDS011;18054;51.572;7.372;2022-07-06T08:46:50;8.00;;;1.60;;
31424;SDS011;18054;51.572;7.372;2022-07-06T08:49:19;6.80;;;1.13;;
31424;SDS011;18054;51.572;7.372;2022-07-06T08:51:46;8.35;;;1.20;;
31424;SDS011;18054;51.572;7.372;2022-07-06T08:56:43;10.43;;;0.98;;
31424;SDS011;18054;51.572;7.372;2022-07-06T08:59:14;5.50;;;1.30;;
31424;SDS011;18054;51.572;7.372;2022-07-06T09:01:41;5.95;;;1.67;;
31424;SDS011;18054;51.572;7.372;2022-07-06T09:04:10;2.40;;;0.90;;
31424;SDS011;18054;51.572;7.372;2022-07-06T09:06:39;9.70;;;1.50;;
31424;SDS011;18054;51.572;7.372;2022-07-06T09:09:09;8.05;;;1.42;;
31424;SDS011;18054;51.572;7.372;2022-07-06T09:11:36;8.07;;;0.93;;
31424;SDS011;18054;51.572;7.372;2022-07-06T09:16:33;5.57;;;1.02;;
31424;SDS011;18054;51.572;7.372;2022-07-06T09:19:05;8.98;;;1.17;;
31424;SDS011;18054;51.572;7.372;2022-07-06T09:21:32;17.77;;;1.38;;
31424;SDS011;18054;51.572;7.372;2022-07-06T09:24:05;6.85;;;1.13;;
31424;SDS011;18054;51.572;7.372;2022-07-06T09:26:33;4.22;;;1.00;;
31424;SDS011;18054;51.572;7.372;2022-07-06T09:29:01;6.28;;;1.02;;
31424;SDS011;18054;51.572;7.372;2022-07-06T09:33:58;6.10;;;0.80;;
31424;SDS011;18054;51.572;7.372;2022-07-06T09:36:43;5.60;;;1.30;;
31424;SDS011;18054;51.572;7.372;2022-07-06T09:39:15;5.90;;;1.45;;
31424;SDS011;18054;51.572;7.372;2022-07-06T09:41:44;5.22;;;0.70;;
31424;SDS011;18054;51.572;7.372;2022-07-06T09:46:39;3.92;;;0.82;;
31424;SDS011;18054;51.572;7.372;2022-07-06T09:49:08;6.60;;;1.50;;
31424;SDS011;18054;51.572;7.372;2022-07-06T09:51:36;7.72;;;1.13;;
31424;SDS011;18054;51.572;7.372;2022-07-06T09:54:05;13.70;;;1.27;;
31424;SDS011;18054;51.572;7.372;2022-07-06T09:56:36;8.63;;;1.85;;
31424;SDS011;18054;51.572;7.372;2022-07-06T09:59:05;5.85;;;0.90;;
31424;SDS011;18054;51.572;7.372;2022-07-06T10:01:32;3.00;;;0.80;;
31424;SDS011;18054;51.572;7.372;2022-07-06T10:04:00;4.47;;;0.85;;
31424;SDS011;18054;51.572;7.372;2022-07-06T10:06:29;6.38;;;0.60;;
31424;SDS011;18054;51.572;7.372;2022-07-06T10:08:57;3.70;;;0.70;;
31424;SDS011;18054;51.572;7.372;2022-07-06T10:11:25;5.30;;;0.93;;
31424;SDS011;18054;51.572;7.372;2022-07-06T10:13:54;3.53;;;0.90;;
31424;SDS011;18054;51.572;7.372;2022-07-06T10:16:22;3.40;;;0.85;;
31424;SDS011;18054;51.572;7.372;2022-07-06T10:18:50;2.28;;;0.50;;
31424;SDS011;18054;51.572;7.372;2022-07-06T10:21:20;7.15;;;1.35;;
31424;SDS011;18054;51.572;7.372;2022-07-06T10:23:49;7.85;;;1.13;;
31424;SDS011;18054;51.572;7.372;2022-07-06T10:26:17;4.75;;;0.95;;
31424;SDS011;18054;51.572;7.372;2022-07-06T10:28:45;8.57;;;1.35;;
31424;SDS011;18054;51.572;7.372;2022-07-06T10:31:13;7.43;;;0.68;;
31424;SDS011;18054;51.572;7.372;2022-07-06T10:33:41;12.25;;;1.02;;
31424;SDS011;18054;51.572;7.372;2022-07-06T10:36:09;7.18;;;1.20;;
31424;SDS011;18054;51.572;7.372;2022-07-06T10:38:37;4.55;;;1.15;;
31424;SDS011;18054;51.572;7.372;2022-07-06T10:41:06;6.90;;;0.98;;
31424;SDS011;18054;51.572;7.372;2022-07-06T10:43:34;4.80;;;0.82;;
31424;SDS011;18054;51.572;7.372;2022-07-06T10:46:08;6.82;;;0.95;;
31424;SDS011;18054;51.572;7.372;2022-07-06T10:48:37;5.25;;;0.57;;
31424;SDS011;18054;51.572;7.372;2022-07-06T10:51:05;5.18;;;1.00;;
31424;SDS011;18054;51.572;7.372;2022-07-06T10:53:33;5.28;;;1.13;;
31424;SDS011;18054;51.572;7.372;2022-07-06T10:56:02;4.80;;;1.52;;
31424;SDS011;18054;51.572;7.372;2022-07-06T10:58:41;5.85;;;0.75;;
31424;SDS011;18054;51.572;7.372;2022-07-06T11:01:13;8.23;;;0.90;;
31424;SDS011;18054;51.572;7.372;2022-07-06T11:03:41;4.35;;;0.90;;
31424;SDS011;18054;51.572;7.372;2022-07-06T11:06:13;10.32;;;0.90;;
31424;SDS011;18054;51.572;7.372;2022-07-06T11:08:45;4.93;;;0.93;;
31424;SDS011;18054;51.572;7.372;2022-07-06T11:11:13;2.60;;;0.65;;
31424;SDS011;18054;51.572;7.372;2022-07-06T11:13:54;3.00;;;0.70;;
31424;SDS011;18054;51.572;7.372;2022-07-06T11:16:22;8.23;;;1.15;;
31424;SDS011;18054;51.572;7.372;2022-07-06T11:19:02;4.97;;;0.90;;
31424;SDS011;18054;51.572;7.372;2022-07-06T11:21:40;3.35;;;0.73;;
31424;SDS011;18054;51.572;7.372;2022-07-06T11:24:08;10.23;;;1.00;;
31424;SDS011;18054;51.572;7.372;2022-07-06T11:26:35;4.20;;;1.00;;
31424;SDS011;18054;51.572;7.372;2022-07-06T11:29:08;3.47;;;0.90;;
31424;SDS011;18054;51.572;7.372;2022-07-06T11:31:36;6.10;;;0.90;;
31424;SDS011;18054;51.572;7.372;2022-07-06T11:34:05;6.72;;;0.82;;
31424;SDS011;18054;51.572;7.372;2022-07-06T11:36:33;4.82;;;0.82;;
31424;SDS011;18054;51.572;7.372;2022-07-06T11:39:08;8.05;;;0.88;;
31424;SDS011;18054;51.572;7.372;2022-07-06T11:41:36;9.57;;;1.13;;
31424;SDS011;18054;51.572;7.372;2022-07-06T11:46:33;7.65;;;1.35;;
31424;SDS011;18054;51.572;7.372;2022-07-06T11:49:02;8.50;;;0.85;;
31424;SDS011;18054;51.572;7.372;2022-07-06T11:51:31;8.77;;;1.08;;
31424;SDS011;18054;51.572;7.372;2022-07-06T11:53:59;6.85;;;0.90;;
31424;SDS011;18054;51.572;7.372;2022-07-06T11:56:27;8.27;;;0.88;;
31424;SDS011;18054;51.572;7.372;2022-07-06T11:58:55;4.82;;;0.88;;
31424;SDS011;18054;51.572;7.372;2022-07-06T12:01:23;5.18;;;0.88;;
31424;SDS011;18054;51.572;7.372;2022-07-06T12:03:53;6.30;;;0.80;;
31424;SDS011;18054;51.572;7.372;2022-07-06T12:06:21;7.22;;;0.63;;
31424;SDS011;18054;51.572;7.372;2022-07-06T12:08:50;4.72;;;1.00;;
31424;SDS011;18054;51.572;7.372;2022-07-06T12:11:22;6.25;;;0.90;;
31424;SDS011;18054;51.572;7.372;2022-07-06T12:13:50;7.45;;;0.80;;
31424;SDS011;18054;51.572;7.372;2022-07-06T12:16:19;5.93;;;0.90;;
31424;SDS011;18054;51.572;7.372;2022-07-06T12:18:47;8.07;;;1.05;;
31424;SDS011;18054;51.572;7.372;2022-07-06T12:21:17;2.50;;;0.82;;
31424;SDS011;18054;51.572;7.372;2022-07-06T12:23:45;5.55;;;0.90;;
31424;SDS011;18054;51.572;7.372;2022-07-06T12:26:13;5.40;;;1.00;;
31424;SDS011;18054;51.572;7.372;2022-07-06T12:28:41;6.53;;;0.95;;
31424;SDS011;18054;51.572;7.372;2022-07-06T12:31:09;9.02;;;1.20;;
31424;SDS011;18054;51.572;7.372;2022-07-06T12:33:37;3.28;;;0.73;;
31424;SDS011;18054;51.572;7.372;2022-07-06T12:36:08;2.38;;;0.70;;
31424;SDS011;18054;51.572;7.372;2022-07-06T12:38:40;4.45;;;1.00;;
31424;SDS011;18054;51.572;7.372;2022-07-06T12:41:10;4.40;;;0.65;;
31424;SDS011;18054;51.572;7.372;2022-07-06T12:48:51;9.82;;;1.42;;
31424;SDS011;18054;51.572;7.372;2022-07-06T12:51:19;7.25;;;0.82;;
31424;SDS011;18054;51.572;7.372;2022-07-06T12:56:15;8.02;;;0.60;;
31424;SDS011;18054;51.572;7.372;2022-07-06T12:58:56;5.47;;;0.82;;
31424;SDS011;18054;51.572;7.372;2022-07-06T13:01:24;5.55;;;0.98;;
31424;SDS011;18054;51.572;7.372;2022-07-06T13:03:55;2.88;;;0.70;;
31424;SDS011;18054;51.572;7.372;2022-07-06T13:06:26;4.13;;;0.82;;
31424;SDS011;18054;51.572;7.372;2022-07-06T13:08:54;1.30;;;0.47;;
31424;SDS011;18054;51.572;7.372;2022-07-06T13:11:22;6.82;;;1.13;;
31424;SDS011;18054;51.572;7.372;2022-07-06T13:13:50;7.47;;;1.17;;
31424;SDS011;18054;51.572;7.372;2022-07-06T13:16:17;6.82;;;1.10;;
31424;SDS011;18054;51.572;7.372;2022-07-06T13:18:45;3.35;;;0.80;;
31424;SDS011;18054;51.572;7.372;2022-07-06T13:23:40;4.18;;;0.77;;
31424;SDS011;18054;51.572;7.372;2022-07-06T13:26:07;4.38;;;0.75;;
31424;SDS011;18054;51.572;7.372;2022-07-06T13:28:36;4.35;;;0.80;;
31424;SDS011;18054;51.572;7.372;2022-07-06T13:31:04;4.45;;;0.77;;
31424;SDS011;18054;51.572;7.372;2022-07-06T13:33:37;4.32;;;1.10;;
31424;SDS011;18054;51.572;7.372;2022-07-06T13:40:59;4.85;;;0.80;;
31424;SDS011;18054;51.572;7.372;2022-07-06T13:46:03;3.40;;;0.70;;
31424;SDS011;18054;51.572;7.372;2022-07-06T13:48:31;7.40;;;1.10;;
31424;SDS011;18054;51.572;7.372;2022-07-06T13:50:58;7.00;;;1.00;;
31424;SDS011;18054;51.572;7.372;2022-07-06T13:53:26;5.03;;;0.60;;
31424;SDS011;18054;51.572;7.372;2022-07-06T13:55:54;12.35;;;1.08;;
31424;SDS011;18054;51.572;7.372;2022-07-06T14:10:40;8.02;;;1.33;;
31424;SDS011;18054;51.572;7.372;2022-07-06T14:13:07;6.88;;;0.90;;
31424;SDS011;18054;51.572;7.372;2022-07-06T14:15:35;9.98;;;1.02;;
31424;SDS011;18054;51.572;7.372;2022-07-06T14:18:02;2.58;;;0.80;;
31424;SDS011;18054;51.572;7.372;2022-07-06T14:20:30;5.15;;;1.02;;
31424;SDS011;18054;51.572;7.372;2022-07-06T14:22:57;6.45;;;0.98;;
31424;SDS011;18054;51.572;7.372;2022-07-06T14:25:25;2.70;;;0.60;;
31424;SDS011;18054;51.572;7.372;2022-07-06T14:27:54;6.32;;;1.15;;
31424;SDS011;18054;51.572;7.372;2022-07-06T14:30:21;5.60;;;0.77;;
31424;SDS011;18054;51.572;7.372;2022-07-06T14:32:48;6.25;;;0.95;;
31424;SDS011;18054;51.572;7.372;2022-07-06T14:35:17;5.60;;;0.85;;
31424;SDS011;18054;51.572;7.372;2022-07-06T14:37:44;10.93;;;0.63;;
31424;SDS011;18054;51.572;7.372;2022-07-06T14:40:12;4.80;;;0.88;;
31424;SDS011;18054;51.572;7.372;2022-07-06T14:42:39;4.15;;;0.80;;
31424;SDS011;18054;51.572;7.372;2022-07-06T14:45:08;9.00;;;0.77;;
31424;SDS011;18054;51.572;7.372;2022-07-06T14:47:36;6.97;;;0.68;;
31424;SDS011;18054;51.572;7.372;2022-07-06T14:50:04;6.60;;;0.88;;
31424;SDS011;18054;51.572;7.372;2022-07-06T14:52:31;4.60;;;1.20;;
31424;SDS011;18054;51.572;7.372;2022-07-06T14:54:59;4.28;;;1.17;;
31424;SDS011;18054;51.572;7.372;2022-07-06T14:57:27;8.90;;;0.80;;
31424;SDS011;18054;51.572;7.372;2022-07-06T14:59:54;4.10;;;1.10;;
31424;SDS011;18054;51.572;7.372;2022-07-06T15:02:23;2.30;;;0.65;;
31424;SDS011;18054;51.572;7.372;2022-07-06T15:04:51;6.43;;;0.98;;
31424;SDS011;18054;51.572;7.372;2022-07-06T15:07:18;8.50;;;1.13;;
31424;SDS011;18054;51.572;7.372;2022-07-06T15:09:45;5.10;;;1.05;;
31424;SDS011;18054;51.572;7.372;2022-07-06T15:12:13;3.58;;;0.95;;
31424;SDS011;18054;51.572;7.372;2022-07-06T15:14:41;4.55;;;0.90;;
31424;SDS011;18054;51.572;7.372;2022-07-06T15:17:08;5.43;;;0.60;;
31424;SDS011;18054;51.572;7.372;2022-07-06T15:19:37;7.20;;;0.70;;
31424;SDS011;18054;51.572;7.372;2022-07-06T15:22:05;3.80;;;1.48;;
31424;SDS011;18054;51.572;7.372;2022-07-06T15:24:32;5.97;;;0.73;;
31424;SDS011;18054;51.572;7.372;2022-07-06T15:27:01;2.92;;;0.50;;
31424;SDS011;18054;51.572;7.372;2022-07-06T15:29:29;5.75;;;0.82;;
31424;SDS011;18054;51.572;7.372;2022-07-06T15:31:56;6.68;;;0.98;;
31424;SDS011;18054;51.572;7.372;2022-07-06T15:36:53;3.72;;;0.65;;
31424;SDS011;18054;51.572;7.372;2022-07-06T15:39:21;5.68;;;0.95;;
31424;SDS011;18054;51.572;7.372;2022-07-06T15:41:49;7.30;;;0.98;;
31424;SDS011;18054;51.572;7.372;2022-07-06T15:44:16;8.73;;;0.68;;
31424;SDS011;18054;51.572;7.372;2022-07-06T15:46:44;14.93;;;0.85;;
31424;SDS011;18054;51.572;7.372;2022-07-06T15:49:15;7.75;;;0.80;;
31424;SDS011;18054;51.572;7.372;2022-07-06T15:51:43;4.18;;;1.30;;
31424;SDS011;18054;51.572;7.372;2022-07-06T15:54:12;9.90;;;0.75;;
31424;SDS011;18054;51.572;7.372;2022-07-06T15:56:40;4.45;;;0.60;;
31424;SDS011;18054;51.572;7.372;2022-07-06T15:59:08;7.47;;;1.15;;
31424;SDS011;18054;51.572;7.372;2022-07-06T16:01:35;1.98;;;0.40;;